Weather reports worldwide

Advertisment
Zinnwald-Georgenfeld, Germany (10582): temperature & dewpoint: 19.06.2018 04:00:00 - 25.06.2018 04:00:00 (CEST)Zinnwald-Georgenfeld, Germany (10582): temperature 5cm & temperature -5cm: 19.06.2018 04:00:00 - 25.06.2018 04:00:00 (CEST)Zinnwald-Georgenfeld, Germany (10582): temperature -20cm & temperature -100cm: 19.06.2018 04:00:00 - 25.06.2018 04:00:00 (CEST)Zinnwald-Georgenfeld, Germany (10582): wind speed & gusts: 19.06.2018 04:00:00 - 25.06.2018 04:00:00 (CEST)Zinnwald-Georgenfeld, Germany (10582): wind direction: 19.06.2018 04:00:00 - 25.06.2018 04:00:00 (CEST)Zinnwald-Georgenfeld, Germany (10582): visibility: 19.06.2018 04:00:00 - 25.06.2018 04:00:00 (CEST)Zinnwald-Georgenfeld, Germany (10582): sunshine duration: 19.06.2018 04:00:00 - 25.06.2018 04:00:00 (CEST)Zinnwald-Georgenfeld, Germany (10582): precipitation: 19.06.2018 04:00:00 - 25.06.2018 04:00:00 (CEST)
Date & Time tt [°C] td [°C] tt 5cm [°C] tt -5cm [°C] tt -20cm [°C] tt -100cm [°C] ff [km/h] ff [kn] fx [km/h] fx [kn] dd vv [km] sd [min] rr [mm]
25.06.2018 04:00:00 7,6 7,2 7,6 9,3 11,1 13,4 10 5 19 11 WNW 0,2 0 0,3
25.06.2018 03:00:00 7,5 7,1 7,6 9,3 11,2 13,4 10 5 20 11 NW 0,1 0 0,2
25.06.2018 02:00:00 7,5 7,1 7,5 9,4 11,4 13,4 13 7 29 15 NW 0,1 0 0,1
25.06.2018 01:00:00 7,5 7,1 7,5 9,4 11,6 13,4 16 8 29 16 NNW 0,1 0 0,0
25.06.2018 00:00:00 7,5 7,2 7,5 9,5 11,8 13,5 15 8 28 15 NNW 0,1 0 0,0
24.06.2018 23:00:00 7,3 6,8 7,3 9,7 12,1 13,5 17 9 31 17 NW 0,1 0 0,1
24.06.2018 22:00:00 7,3 6,2 7,3 10,0 12,3 13,5 19 11 34 19 NW 7 0 0,0
24.06.2018 21:00:00 7,9 6,5 7,9 11,0 12,5 13,5 16 9 30 16 NW 12 0 0,0
24.06.2018 20:00:00 8,5 6,8 8,9 12,0 12,6 13,6 14 8 27 14 NW 12 0 0,0
24.06.2018 19:00:00 8,5 6,5 8,4 12,6 12,6 13,6 14 8 25 14 NW 8 0 0,0
24.06.2018 18:00:00 9,7 6,5 10,5 14,7 12,4 13,6 16 9 34 19 NW 33 4 0,0
24.06.2018 17:00:00 9,7 6,4 11,0 15,1 12,1 13,6 16 9 35 19 NNW 29 7 0,0
24.06.2018 16:00:00 9,0 6,3 9,8 14,3 11,8 13,6 16 9 40 22 WNW 22 1 0,0
24.06.2018 15:00:00 9,3 6,4 10,1 14,9 11,3 13,7 18 10 37 20 NW 22 0 0,0
24.06.2018 14:00:00 9,4 6,5 10,5 14,9 10,8 13,7 16 9 39 21 NW 21 0 0,0
24.06.2018 13:00:00 8,8 6,7 9,8 13,7 10,4 13,7 21 11 36 20 NW 14 0 0,0
24.06.2018 12:00:00 8,0 7,0 9,0 11,9 10,1 13,7 19 10 39 21 WNW 11 0 0,0
24.06.2018 11:00:00 6,9 6,6 7,4 10,0 10,0 13,8 19 10 36 20 WNW 0,1 0 0,0
24.06.2018 10:00:00 6,7 6,3 7,0 9,2 9,9 13,8 18 10 36 20 NW 0,1 0 0,4
24.06.2018 09:00:00 6,7 6,4 6,9 8,7 9,9 13,8 18 10 33 18 NW 0,1 0 0,2
24.06.2018 08:00:00 6,6 6,2 6,6 8,4 9,9 13,8 19 10 37 20 NW 0,1 0 0,4
24.06.2018 07:00:00 6,7 6,4 6,8 8,2 10,0 13,8 16 9 38 21 NNW 0,1 0 0,5
24.06.2018 06:00:00 6,7 6,4 6,7 8,0 10,0 13,9 18 10 35 19 NW 1,2 0 0,7
24.06.2018 05:00:00 6,6 6,3 6,6 7,9 10,1 13,9 19 10 39 21 NW 0,1 0 0,2
24.06.2018 04:00:00 6,7 6,3 6,6 8,0 10,2 13,9 21 12 42 23 NW 0,1 0 0,4
24.06.2018 03:00:00 6,6 6,2 6,6 8,0 10,3 13,9 21 11 42 23 NW 0,2 0 1,5
24.06.2018 02:00:00 6,7 6,3 6,6 8,1 10,6 13,9 19 10 42 23 NW 0,8 0 1,9
24.06.2018 01:00:00 6,6 6,2 6,6 8,2 10,8 14,0 22 12 39 21 NW 0,8 0 1,4
24.06.2018 00:00:00 6,6 6,2 6,6 8,4 11,1 14,0 19 11 45 24 NW 0,1 0 1,0
23.06.2018 23:00:00 6,7 6,3 6,7 8,5 11,3 14,0 22 12 47 26 NW 0,8 0 0,4
23.06.2018 22:00:00 6,6 6,2 6,6 8,7 11,5 14,0 23 12 48 26 NW 0,2 0 0,4
23.06.2018 21:00:00 6,6 6,1 6,6 9,0 11,7 14,0 21 11 49 26 WNW 0,9 0 0,2
23.06.2018 20:00:00 6,9 6,2 6,8 9,5 11,8 14,1 31 17 52 28 NW 1,8 0 0,4
23.06.2018 19:00:00 7,2 6,6 7,3 10,3 11,9 14,1 25 14 45 25 NW 3,4 0 0,1
23.06.2018 18:00:00 6,9 6,3 7,1 10,5 12,0 14,1 29 16 56 30 NW 3,0 0 1,0
23.06.2018 17:00:00 7,5 6,8 7,7 11,2 12,0 14,1 25 14 49 26 WNW 5 0 0,0
23.06.2018 16:00:00 7,4 6,9 8,1 11,5 11,9 14,1 21 11 45 24 WNW 6 0 0,3
23.06.2018 15:00:00 6,9 6,3 7,3 11,6 11,8 14,1 23 13 42 23 NW 3,9 0 1,0
23.06.2018 14:00:00 6,9 6,4 7,8 11,8 11,7 14,2 22 12 45 24 NW 2,7 0 0,6
23.06.2018 13:00:00 6,3 5,6 6,9 11,6 11,6 14,2 23 12 41 22 WNW 3,7 0 0,0
23.06.2018 12:00:00 6,3 5,0 6,8 11,4 11,4 14,2 26 14 49 26 WNW 9 0 0,0
23.06.2018 11:00:00 7,5 4,3 8,4 12,2 11,1 14,2 23 12 42 23 WNW 27 0 0,0
23.06.2018 10:00:00 6,6 3,7 7,0 10,4 11,0 14,2 22 12 47 25 WNW 22 0 0,0
23.06.2018 09:00:00 5,4 3,5 5,6 9,4 11,0 14,2 22 12 50 27 WNW 14 2 0,0
23.06.2018 08:00:00 5,1 4,4 5,4 8,0 11,2 14,2 19 10 44 24 WNW 7 0 0,0
23.06.2018 07:00:00 5,1 4,3 5,1 7,7 11,3 14,2 21 11 41 22 WNW 6 0 0,0
23.06.2018 06:00:00 5,4 4,7 5,4 7,7 11,5 14,2 22 12 45 24 NW 4,8 0 0,0
23.06.2018 05:00:00 5,8 5,0 5,6 7,8 11,7 14,2 26 14 43 23 NW 6 0 0,0
23.06.2018 04:00:00 6,1 5,4 6,0 8,0 11,9 14,3 23 12 43 23 WNW 3,6 0 0,0
23.06.2018 03:00:00 6,2 5,4 6,1 8,1 12,1 14,3 23 13 42 23 NW 6 0 0,0
23.06.2018 02:00:00 6,3 5,6 6,2 8,3 12,4 14,3 21 11 40 22 NW 3,4 0 0,0
23.06.2018 01:00:00 6,5 5,9 6,4 8,5 12,6 14,3 21 12 36 20 NW 3,8 0 0,0
23.06.2018 00:00:00 6,2 5,5 6,1 8,2 12,9 14,3 17 9 32 18 WNW 8 0 0,0
22.06.2018 23:00:00 6,5 5,7 6,2 8,9 13,3 14,3 14 8 26 14 NW 14 0 0,0
22.06.2018 22:00:00 6,0 5,3 6,1 9,1 13,6 14,3 14 8 40 22 NW 0,4 0 0,5
22.06.2018 21:00:00 5,9 3,6 4,8 9,7 13,9 14,3 11 6 41 22 NW 70 0 2,0
22.06.2018 20:00:00 7,5 6,0 7,3 11,5 14,0 14,3 13 7 34 18 WNW 19 21 0,0
22.06.2018 19:00:00 7,8 5,4 8,0 12,9 14,0 14,3 17 9 41 22 NW 29 33 2,0
22.06.2018 18:00:00 7,8 4,8 8,1 13,6 13,9 14,3 18 10 36 20 WNW 47 11 0,0
22.06.2018 17:00:00 8,0 5,3 8,6 14,1 13,9 14,3 19 10 42 23 WNW 52 9 0,0
22.06.2018 16:00:00 6,5 4,9 6,5 12,8 13,8 14,3 19 11 40 21 WNW 23 2 0,0
22.06.2018 15:00:00 6,2 4,8 6,9 13,1 13,7 14,2 21 11 47 25 WNW 43 1 0,0
22.06.2018 14:00:00 6,0 5,1 7,3 12,0 13,8 14,2 18 10 40 21 WNW 10 0 0,2
22.06.2018 13:00:00 5,9 4,8 6,9 11,7 13,8 14,2 15 8 31 17 W 19 0 0,6
22.06.2018 12:00:00 5,8 4,0 6,5 11,8 13,9 14,2 23 12 39 21 W 25 0 0,3
22.06.2018 11:00:00 5,1 3,1 5,3 10,4 14,0 14,2 16 8 32 17 W 40 0 0,1
22.06.2018 10:00:00 4,8 3,3 5,2 10,7 14,1 14,2 16 9 35 19 W 9 0 0,0
22.06.2018 09:00:00 5,2 2,4 6,2 10,7 14,3 14,2 18 10 40 22 W 67 0 0,0
22.06.2018 08:00:00 4,7 2,5 5,2 10,0 14,5 14,2 20 11 41 22 W 52 0 0,0
22.06.2018 07:00:00 4,6 2,5 5,2 9,9 14,8 14,1 16 8 42 23 W 38 2 0,0
22.06.2018 06:00:00 4,7 2,5 4,8 9,4 15,2 14,1 22 12 46 25 WNW 44 0 0,0
22.06.2018 05:00:00 5,0 2,9 5,1 9,5 15,6 14,1 19 11 39 21 WNW 54 0 0,0
22.06.2018 04:00:00 5,0 3,3 5,2 9,3 16,2 14,1 14 7 26 14 NW 44 0 0,0
22.06.2018 03:00:00 4,5 2,9 3,7 9,0 16,8 14,1 16 9 37 20 NW 39 0 0,0
22.06.2018 02:00:00 5,0 2,7 4,3 9,6 17,5 14,1 23 12 41 22 NNW 62 0 0,0
22.06.2018 01:00:00 5,5 2,2 4,7 10,5 18,3 14,1 22 12 42 23 NW 70 0 0,0
22.06.2018 00:00:00 6,4 2,1 5,5 11,6 19,1 14,0 22 12 46 25 NW 70 0 0,0
21.06.2018 23:00:00 7,4 1,4 6,7 12,9 19,8 14,0 28 15 51 27 NNW 70 0 0,0
21.06.2018 22:00:00 8,2 1,9 7,6 14,6 20,5 14,0 31 17 49 27 NNW 70 0 0,0
21.06.2018 21:00:00 9,8 5,8 9,7 16,8 21,2 14,0 28 15 53 28 NNW 44 41 0,0
21.06.2018 20:00:00 10,9 7,8 12,0 18,3 21,9 14,0 29 16 58 31 NNW 28 32 0,0
21.06.2018 19:00:00 9,8 8,3 9,8 19,0 22,6 14,0 30 16 51 28 NNW 12 4 0,1
21.06.2018 18:00:00 11,3 8,7 11,2 21,0 23,1 14,0 27 15 48 26 NW 12 0 0,0
21.06.2018 17:00:00 12,5 8,8 13,1 24,2 23,3 14,0 29 16 54 29 NNW 48 0 0,0
21.06.2018 16:00:00 16,4 9,9 18,4 29,2 23,1 13,9 31 17 54 29 NW 18 38 0,0
21.06.2018 15:00:00 22,3 9,6 25,4 30,6 22,6 13,9 31 17 61 33 W 30 21 0,0
21.06.2018 14:00:00 22,4 11,8 23,8 31,8 21,9 13,9 29 15 60 33 W 50 43 0,0
21.06.2018 13:00:00 23,4 12,3 27,3 31,9 21,0 13,9 29 15 53 29 W 41 35 0,0
21.06.2018 12:00:00 23,4 14,1 28,5 32,1 20,1 13,9 31 17 50 27 SSW 33 46 0,0
21.06.2018 11:00:00 22,4 15,2 27,1 29,7 19,3 13,9 24 13 38 20 S 14 48 0,0
21.06.2018 10:00:00 20,8 14,3 23,0 25,4 18,7 13,9 19 10 37 20 S 23 38 0,0
21.06.2018 09:00:00 20,9 11,7 22,8 24,1 18,3 13,8 21 11 32 17 SW 9 60 0,0
21.06.2018 08:00:00 20,1 12,1 21,1 20,5 18,2 13,8 18 10 26 14 SW 19 60 0,0
21.06.2018 07:00:00 18,2 12,5 17,5 17,3 18,5 13,8 13 7 20 11 SW 48 60 0,0
21.06.2018 06:00:00 16,5 11,5 14,4 15,3 18,9 13,8 16 9 21 11 SW 52 29 0,0
21.06.2018 05:00:00 15,8 11,4 12,7 15,3 19,4 13,8 15 8 17 9 SW 40 0 0,0
21.06.2018 04:00:00 15,3 11,5 12,0 16,1 19,9 13,8 16 8 21 11 SW 34 0 0,0
21.06.2018 03:00:00 15,5 11,5 13,3 17,0 20,5 13,8 19 10 22 12 SSW 30 0 0,0
21.06.2018 02:00:00 16,4 11,8 14,4 18,0 21,0 13,8 16 9 24 13 S 32 0 0,0
21.06.2018 01:00:00 17,0 11,7 15,3 18,7 21,6 13,8 18 10 24 13 SSW 39 0 0,0
21.06.2018 00:00:00 17,7 11,7 16,0 19,5 22,2 13,8 20 11 26 14 S 39 0 0,0
20.06.2018 23:00:00 17,6 11,7 15,7 20,5 22,9 13,8 17 9 22 12 S 38 0 0,0
20.06.2018 22:00:00 18,0 11,7 16,0 22,0 23,5 13,8 16 9 21 11 S 42 0 0,0
20.06.2018 21:00:00 19,2 11,7 17,6 24,3 23,9 13,8 15 8 23 12 S 45 54 0,0
20.06.2018 20:00:00 21,1 11,6 21,9 27,6 24,0 13,8 15 8 22 12 S 27 57 0,0
20.06.2018 19:00:00 21,8 11,9 23,9 30,0 23,9 13,8 18 10 29 15 S 28 57 0,0
20.06.2018 18:00:00 22,2 11,9 24,8 32,4 23,5 13,8 19 10 31 17 S 21 60 0,0
20.06.2018 17:00:00 22,3 12,0 25,6 33,8 22,7 13,8 19 10 34 18 S 21 59 0,0
20.06.2018 16:00:00 22,3 11,2 27,3 35,0 21,7 13,7 21 12 32 18 SSW 21 59 0,0
20.06.2018 15:00:00 22,0 11,8 26,6 34,7 20,6 13,7 17 9 35 19 S 59 53 0,0
20.06.2018 14:00:00 21,8 12,1 28,0 33,2 19,6 13,7 20 11 35 19 SW 18 46 0,0
20.06.2018 13:00:00 19,9 12,2 22,9 30,8 18,6 13,7 17 9 30 16 SW 33 45 0,0
20.06.2018 12:00:00 19,4 13,4 23,5 29,2 17,6 13,7 17 9 29 16 S 27 53 0,0
20.06.2018 11:00:00 17,6 13,2 21,5 24,6 16,8 13,7 14 8 27 14 S 15 28 0,0
20.06.2018 10:00:00 17,8 13,2 21,4 24,3 16,1 13,7 16 9 26 14 S 11 51 0,0
20.06.2018 09:00:00 16,7 12,5 19,0 20,0 15,9 13,7 14 8 21 11 S 28 16 0,0
20.06.2018 08:00:00 14,9 12,9 15,6 16,4 15,9 13,7 5 3 11 6 ENE 8 13 0,0
20.06.2018 07:00:00 13,8 12,4 13,2 14,5 16,0 13,7 6 3 13 7 NNE 7 5 0,0
20.06.2018 06:00:00 13,4 12,0 11,9 13,8 16,3 13,7 8 5 19 10 ENE 7 23 0,0
20.06.2018 05:00:00 13,5 11,9 12,4 14,0 16,6 13,7 16 9 21 11 NNW 9 0 0,0
20.06.2018 04:00:00 13,6 11,7 12,8 14,2 16,9 13,7 15 8 21 11 NNW 16 0 0,0
20.06.2018 03:00:00 13,7 11,6 12,5 14,2 17,2 13,7 13 7 21 11 NW 22 0 0,0
20.06.2018 02:00:00 13,8 11,7 12,8 14,9 17,6 13,7 14 7 19 10 NNW 21 0 0,0
20.06.2018 01:00:00 13,6 11,5 11,6 14,9 18,0 13,7 9 5 16 9 NW 24 0 0,0
20.06.2018 00:00:00 14,0 11,4 12,3 15,8 18,5 13,7 11 6 16 9 NW 27 0 0,0
19.06.2018 23:00:00 14,4 11,3 13,1 16,7 18,9 13,7 12 6 16 9 NNW 29 0 0,0
19.06.2018 22:00:00 15,6 11,6 14,6 18,4 19,2 13,7 10 5 19 10 NNW 46 0 0,0
19.06.2018 21:00:00 16,4 11,4 16,0 19,7 19,4 13,7 13 7 22 12 NNW 44 0 0,0
19.06.2018 20:00:00 17,2 11,5 17,2 21,2 19,5 13,7 11 6 20 11 NNW 52 0 0,0
19.06.2018 19:00:00 18,0 11,3 18,2 23,1 19,3 13,7 13 7 26 14 NW 51 9 0,0
19.06.2018 18:00:00 18,0 11,9 19,2 24,1 19,0 13,7 14 7 29 16 NW 41 18 0,0
19.06.2018 17:00:00 18,1 12,3 20,3 24,5 18,7 13,7 15 8 27 14 WNW 22 9 0,0
19.06.2018 16:00:00 17,6 11,5 18,5 24,6 18,2 13,7 15 8 29 16 WNW 48 9 0,0
19.06.2018 15:00:00 18,2 11,8 20,7 24,8 17,6 13,7 13 7 31 17 WNW 23 9 0,0
19.06.2018 14:00:00 17,1 11,6 19,0 24,6 17,1 13,7 13 7 22 12 W 51 7 0,0
19.06.2018 13:00:00 16,8 11,9 19,9 23,1 16,5 13,7 15 8 25 14 WSW 23 6 0,0
19.06.2018 12:00:00 16,2 12,2 17,9 21,6 16,0 13,7 16 8 24 13 WSW 37 9 0,0
19.06.2018 11:00:00 15,8 12,2 18,1 19,9 15,5 13,7 13 7 22 12 W 29 10 0,0
19.06.2018 10:00:00 15,1 11,7 16,0 18,3 15,2 13,7 11 6 20 11 WNW 41 0 0,0
19.06.2018 09:00:00 14,9 11,4 16,2 17,6 14,9 13,7 10 5 22 12 W 40 9 0,0
19.06.2018 08:00:00 14,0 11,0 15,1 15,1 14,9 13,6 12 7 23 13 WSW 32 10 0,0
19.06.2018 07:00:00 13,2 10,0 13,1 13,6 15,1 13,6 13 7 23 12 W 31 60 0,0
19.06.2018 06:00:00 11,7 9,0 10,2 11,4 15,5 13,6 13 7 20 11 WNW 42 29 0,0
19.06.2018 05:00:00 11,2 8,6 8,9 11,4 15,8 13,6 11 6 15 8 W 38 0 0,0
19.06.2018 04:00:00 11,4 8,5 7,7 11,8 16,3 13,6 10 5 15 8 W 37 0 0,0

tt = temperature
td = dewpoint
tt 5cm = temperature 5cm
tt -5cm = temperature -5cm
tt -20cm = temperature -20cm
tt -100cm = temperature -100cm
ff = wind speed
fx = gusts
dd = wind direction
vv = visibility
sd = sunshine duration
rr = precipitation

Next stations